sensor_id;sensor_type;location;lat;lon;timestamp;P1;durP1;ratioP1;P2;durP2;ratioP2
18090;SDS011;9172;49.948;9.208;2023-11-19T00:01:52;1.67;;;1.30;;
18090;SDS011;9172;49.948;9.208;2023-11-19T00:04:20;2.43;;;1.60;;
18090;SDS011;9172;49.948;9.208;2023-11-19T00:06:49;2.30;;;1.67;;
18090;SDS011;9172;49.948;9.208;2023-11-19T00:09:18;2.00;;;1.47;;
18090;SDS011;9172;49.948;9.208;2023-11-19T00:11:46;2.13;;;1.43;;
18090;SDS011;9172;49.948;9.208;2023-11-19T00:14:15;1.97;;;1.37;;
18090;SDS011;9172;49.948;9.208;2023-11-19T00:16:43;2.57;;;1.20;;
18090;SDS011;9172;49.948;9.208;2023-11-19T00:19:12;4.43;;;1.53;;
18090;SDS011;9172;49.948;9.208;2023-11-19T00:21:40;2.00;;;1.47;;
18090;SDS011;9172;49.948;9.208;2023-11-19T00:24:09;2.23;;;1.50;;
18090;SDS011;9172;49.948;9.208;2023-11-19T00:26:38;1.57;;;1.20;;
18090;SDS011;9172;49.948;9.208;2023-11-19T00:29:08;3.20;;;1.40;;
18090;SDS011;9172;49.948;9.208;2023-11-19T00:31:36;1.70;;;1.10;;
18090;SDS011;9172;49.948;9.208;2023-11-19T00:34:05;1.43;;;1.23;;
18090;SDS011;9172;49.948;9.208;2023-11-19T00:36:33;1.93;;;1.03;;
18090;SDS011;9172;49.948;9.208;2023-11-19T00:39:02;1.50;;;1.00;;
18090;SDS011;9172;49.948;9.208;2023-11-19T00:41:31;1.87;;;1.20;;
18090;SDS011;9172;49.948;9.208;2023-11-19T00:44:00;1.07;;;0.97;;
18090;SDS011;9172;49.948;9.208;2023-11-19T00:46:29;3.20;;;1.40;;
18090;SDS011;9172;49.948;9.208;2023-11-19T00:48:58;2.63;;;1.43;;
18090;SDS011;9172;49.948;9.208;2023-11-19T00:51:27;2.03;;;1.00;;
18090;SDS011;9172;49.948;9.208;2023-11-19T00:53:57;2.13;;;1.10;;
18090;SDS011;9172;49.948;9.208;2023-11-19T00:56:27;1.27;;;1.10;;
18090;SDS011;9172;49.948;9.208;2023-11-19T00:58:55;2.00;;;1.40;;
18090;SDS011;9172;49.948;9.208;2023-11-19T01:01:25;1.40;;;1.00;;
18090;SDS011;9172;49.948;9.208;2023-11-19T01:03:54;1.30;;;1.10;;
18090;SDS011;9172;49.948;9.208;2023-11-19T01:06:27;4.67;;;1.50;;
18090;SDS011;9172;49.948;9.208;2023-11-19T01:08:56;1.87;;;1.17;;
18090;SDS011;9172;49.948;9.208;2023-11-19T01:11:25;1.40;;;1.30;;
18090;SDS011;9172;49.948;9.208;2023-11-19T01:13:54;0.97;;;0.87;;
18090;SDS011;9172;49.948;9.208;2023-11-19T01:16:23;1.10;;;1.00;;
18090;SDS011;9172;49.948;9.208;2023-11-19T01:18:53;1.70;;;1.20;;
18090;SDS011;9172;49.948;9.208;2023-11-19T01:21:22;1.63;;;1.07;;
18090;SDS011;9172;49.948;9.208;2023-11-19T01:23:51;3.30;;;1.10;;
18090;SDS011;9172;49.948;9.208;2023-11-19T01:26:19;0.90;;;0.87;;
18090;SDS011;9172;49.948;9.208;2023-11-19T01:28:48;1.33;;;1.00;;
18090;SDS011;9172;49.948;9.208;2023-11-19T01:31:18;3.17;;;1.10;;
18090;SDS011;9172;49.948;9.208;2023-11-19T01:33:47;1.40;;;1.03;;
18090;SDS011;9172;49.948;9.208;2023-11-19T01:36:15;1.20;;;0.90;;
18090;SDS011;9172;49.948;9.208;2023-11-19T01:38:44;1.40;;;1.10;;
18090;SDS011;9172;49.948;9.208;2023-11-19T01:41:12;1.83;;;1.10;;
18090;SDS011;9172;49.948;9.208;2023-11-19T01:43:41;1.77;;;1.00;;
18090;SDS011;9172;49.948;9.208;2023-11-19T01:46:11;2.93;;;1.20;;
18090;SDS011;9172;49.948;9.208;2023-11-19T01:48:41;1.67;;;1.10;;
18090;SDS011;9172;49.948;9.208;2023-11-19T01:51:11;2.57;;;1.20;;
18090;SDS011;9172;49.948;9.208;2023-11-19T01:53:43;2.40;;;1.30;;
18090;SDS011;9172;49.948;9.208;2023-11-19T01:56:13;1.43;;;1.30;;
18090;SDS011;9172;49.948;9.208;2023-11-19T01:58:53;1.67;;;1.10;;
18090;SDS011;9172;49.948;9.208;2023-11-19T02:01:23;1.60;;;1.00;;
18090;SDS011;9172;49.948;9.208;2023-11-19T02:03:51;2.40;;;1.23;;
18090;SDS011;9172;49.948;9.208;2023-11-19T02:06:20;1.57;;;1.23;;
18090;SDS011;9172;49.948;9.208;2023-11-19T02:08:50;1.20;;;1.00;;
18090;SDS011;9172;49.948;9.208;2023-11-19T02:11:18;1.17;;;1.00;;
18090;SDS011;9172;49.948;9.208;2023-11-19T02:13:47;1.57;;;1.07;;
18090;SDS011;9172;49.948;9.208;2023-11-19T02:16:16;1.17;;;0.70;;
18090;SDS011;9172;49.948;9.208;2023-11-19T02:18:44;1.13;;;0.90;;
18090;SDS011;9172;49.948;9.208;2023-11-19T02:21:14;0.80;;;0.70;;
18090;SDS011;9172;49.948;9.208;2023-11-19T02:23:44;2.07;;;0.87;;
18090;SDS011;9172;49.948;9.208;2023-11-19T02:26:14;1.30;;;0.80;;
18090;SDS011;9172;49.948;9.208;2023-11-19T02:28:55;1.10;;;0.87;;
18090;SDS011;9172;49.948;9.208;2023-11-19T02:31:23;1.20;;;0.80;;
18090;SDS011;9172;49.948;9.208;2023-11-19T02:33:53;1.10;;;0.77;;
18090;SDS011;9172;49.948;9.208;2023-11-19T02:36:22;1.93;;;0.70;;
18090;SDS011;9172;49.948;9.208;2023-11-19T02:38:51;1.23;;;0.70;;
18090;SDS011;9172;49.948;9.208;2023-11-19T02:41:19;2.57;;;1.00;;
18090;SDS011;9172;49.948;9.208;2023-11-19T02:43:48;1.87;;;0.60;;
18090;SDS011;9172;49.948;9.208;2023-11-19T02:46:16;1.43;;;0.80;;
18090;SDS011;9172;49.948;9.208;2023-11-19T02:48:46;3.67;;;1.00;;
18090;SDS011;9172;49.948;9.208;2023-11-19T02:51:14;1.63;;;0.80;;
18090;SDS011;9172;49.948;9.208;2023-11-19T02:53:44;1.17;;;0.60;;
18090;SDS011;9172;49.948;9.208;2023-11-19T02:56:14;2.23;;;0.83;;
18090;SDS011;9172;49.948;9.208;2023-11-19T02:58:45;1.07;;;0.53;;
18090;SDS011;9172;49.948;9.208;2023-11-19T03:01:20;1.03;;;0.60;;
18090;SDS011;9172;49.948;9.208;2023-11-19T03:03:52;0.60;;;0.40;;
18090;SDS011;9172;49.948;9.208;2023-11-19T03:06:22;0.70;;;0.40;;
18090;SDS011;9172;49.948;9.208;2023-11-19T03:08:50;1.53;;;0.80;;
18090;SDS011;9172;49.948;9.208;2023-11-19T03:11:19;0.90;;;0.60;;
18090;SDS011;9172;49.948;9.208;2023-11-19T03:13:48;0.67;;;0.60;;
18090;SDS011;9172;49.948;9.208;2023-11-19T03:16:16;1.17;;;0.50;;
18090;SDS011;9172;49.948;9.208;2023-11-19T03:18:45;0.60;;;0.40;;
18090;SDS011;9172;49.948;9.208;2023-11-19T03:21:13;0.67;;;0.53;;
18090;SDS011;9172;49.948;9.208;2023-11-19T03:23:42;1.23;;;0.50;;
18090;SDS011;9172;49.948;9.208;2023-11-19T03:26:11;0.60;;;0.50;;
18090;SDS011;9172;49.948;9.208;2023-11-19T03:28:40;0.67;;;0.43;;
18090;SDS011;9172;49.948;9.208;2023-11-19T03:31:09;1.00;;;0.60;;
18090;SDS011;9172;49.948;9.208;2023-11-19T03:33:37;0.60;;;0.60;;
18090;SDS011;9172;49.948;9.208;2023-11-19T03:36:07;1.07;;;0.60;;
18090;SDS011;9172;49.948;9.208;2023-11-19T03:38:36;0.50;;;0.47;;
18090;SDS011;9172;49.948;9.208;2023-11-19T03:41:10;3.90;;;1.00;;
18090;SDS011;9172;49.948;9.208;2023-11-19T03:43:39;0.70;;;0.60;;
18090;SDS011;9172;49.948;9.208;2023-11-19T03:46:16;1.13;;;0.57;;
18090;SDS011;9172;49.948;9.208;2023-11-19T03:48:46;1.30;;;0.50;;
18090;SDS011;9172;49.948;9.208;2023-11-19T03:51:15;0.67;;;0.40;;
18090;SDS011;9172;49.948;9.208;2023-11-19T03:53:43;0.50;;;0.40;;
18090;SDS011;9172;49.948;9.208;2023-11-19T03:56:13;0.40;;;0.40;;
18090;SDS011;9172;49.948;9.208;2023-11-19T03:58:41;0.40;;;0.40;;
18090;SDS011;9172;49.948;9.208;2023-11-19T04:01:11;3.10;;;0.47;;
18090;SDS011;9172;49.948;9.208;2023-11-19T04:03:40;0.50;;;0.50;;
18090;SDS011;9172;49.948;9.208;2023-11-19T04:06:08;1.47;;;0.57;;
18090;SDS011;9172;49.948;9.208;2023-11-19T04:08:37;0.43;;;0.43;;
18090;SDS011;9172;49.948;9.208;2023-11-19T04:11:06;0.40;;;0.40;;
18090;SDS011;9172;49.948;9.208;2023-11-19T04:13:35;0.50;;;0.50;;
18090;SDS011;9172;49.948;9.208;2023-11-19T04:16:04;0.60;;;0.40;;
18090;SDS011;9172;49.948;9.208;2023-11-19T04:18:33;0.83;;;0.60;;
18090;SDS011;9172;49.948;9.208;2023-11-19T04:21:02;0.50;;;0.40;;
18090;SDS011;9172;49.948;9.208;2023-11-19T04:23:33;1.30;;;0.40;;
18090;SDS011;9172;49.948;9.208;2023-11-19T04:26:02;0.50;;;0.50;;
18090;SDS011;9172;49.948;9.208;2023-11-19T04:28:32;0.50;;;0.33;;
18090;SDS011;9172;49.948;9.208;2023-11-19T04:31:01;0.40;;;0.40;;
18090;SDS011;9172;49.948;9.208;2023-11-19T04:33:30;0.57;;;0.40;;
18090;SDS011;9172;49.948;9.208;2023-11-19T04:35:58;0.57;;;0.50;;
18090;SDS011;9172;49.948;9.208;2023-11-19T04:38:28;0.97;;;0.60;;
18090;SDS011;9172;49.948;9.208;2023-11-19T04:40:57;3.83;;;0.50;;
18090;SDS011;9172;49.948;9.208;2023-11-19T04:43:26;0.70;;;0.60;;
18090;SDS011;9172;49.948;9.208;2023-11-19T04:45:55;0.70;;;0.57;;
18090;SDS011;9172;49.948;9.208;2023-11-19T04:48:23;0.83;;;0.60;;
18090;SDS011;9172;49.948;9.208;2023-11-19T04:50:52;0.70;;;0.60;;
18090;SDS011;9172;49.948;9.208;2023-11-19T04:53:20;0.40;;;0.40;;
18090;SDS011;9172;49.948;9.208;2023-11-19T04:55:49;0.40;;;0.30;;
18090;SDS011;9172;49.948;9.208;2023-11-19T04:58:17;0.93;;;0.60;;
18090;SDS011;9172;49.948;9.208;2023-11-19T05:00:46;1.57;;;0.70;;
18090;SDS011;9172;49.948;9.208;2023-11-19T05:03:14;0.60;;;0.60;;
18090;SDS011;9172;49.948;9.208;2023-11-19T05:05:44;0.43;;;0.40;;
18090;SDS011;9172;49.948;9.208;2023-11-19T05:08:12;0.60;;;0.60;;
18090;SDS011;9172;49.948;9.208;2023-11-19T05:10:41;3.50;;;0.47;;
18090;SDS011;9172;49.948;9.208;2023-11-19T05:13:10;0.60;;;0.40;;
18090;SDS011;9172;49.948;9.208;2023-11-19T05:15:39;0.40;;;0.40;;
18090;SDS011;9172;49.948;9.208;2023-11-19T05:18:07;0.50;;;0.50;;
18090;SDS011;9172;49.948;9.208;2023-11-19T05:20:36;0.70;;;0.60;;
18090;SDS011;9172;49.948;9.208;2023-11-19T05:23:05;0.67;;;0.50;;
18090;SDS011;9172;49.948;9.208;2023-11-19T05:25:33;0.40;;;0.40;;
18090;SDS011;9172;49.948;9.208;2023-11-19T05:28:03;0.40;;;0.40;;
18090;SDS011;9172;49.948;9.208;2023-11-19T05:30:32;0.70;;;0.50;;
18090;SDS011;9172;49.948;9.208;2023-11-19T05:35:45;0.90;;;0.60;;
18090;SDS011;9172;49.948;9.208;2023-11-19T05:38:14;0.50;;;0.50;;
18090;SDS011;9172;49.948;9.208;2023-11-19T05:40:42;0.70;;;0.70;;
18090;SDS011;9172;49.948;9.208;2023-11-19T05:43:11;0.60;;;0.50;;
18090;SDS011;9172;49.948;9.208;2023-11-19T05:45:41;1.03;;;0.70;;
18090;SDS011;9172;49.948;9.208;2023-11-19T05:48:09;0.60;;;0.50;;
18090;SDS011;9172;49.948;9.208;2023-11-19T05:50:46;0.50;;;0.50;;
18090;SDS011;9172;49.948;9.208;2023-11-19T05:53:15;0.70;;;0.60;;
18090;SDS011;9172;49.948;9.208;2023-11-19T05:55:45;5.13;;;0.93;;
18090;SDS011;9172;49.948;9.208;2023-11-19T05:58:15;1.20;;;0.80;;
18090;SDS011;9172;49.948;9.208;2023-11-19T06:00:43;3.30;;;0.87;;
18090;SDS011;9172;49.948;9.208;2023-11-19T06:03:23;0.90;;;0.60;;
18090;SDS011;9172;49.948;9.208;2023-11-19T06:05:52;0.80;;;0.70;;
18090;SDS011;9172;49.948;9.208;2023-11-19T06:08:21;1.50;;;1.17;;
18090;SDS011;9172;49.948;9.208;2023-11-19T06:10:49;1.40;;;1.30;;
18090;SDS011;9172;49.948;9.208;2023-11-19T06:13:18;2.50;;;1.00;;
18090;SDS011;9172;49.948;9.208;2023-11-19T06:15:47;1.10;;;0.90;;
18090;SDS011;9172;49.948;9.208;2023-11-19T06:18:17;1.83;;;1.23;;
18090;SDS011;9172;49.948;9.208;2023-11-19T06:20:46;0.80;;;0.80;;
18090;SDS011;9172;49.948;9.208;2023-11-19T06:23:16;1.70;;;1.30;;
18090;SDS011;9172;49.948;9.208;2023-11-19T06:25:44;3.17;;;1.33;;
18090;SDS011;9172;49.948;9.208;2023-11-19T06:28:13;2.00;;;0.97;;
18090;SDS011;9172;49.948;9.208;2023-11-19T06:30:41;1.80;;;1.20;;
18090;SDS011;9172;49.948;9.208;2023-11-19T06:33:12;3.03;;;2.33;;
18090;SDS011;9172;49.948;9.208;2023-11-19T06:35:51;1.50;;;1.20;;
18090;SDS011;9172;49.948;9.208;2023-11-19T06:38:20;1.30;;;1.10;;
18090;SDS011;9172;49.948;9.208;2023-11-19T06:40:49;1.83;;;1.20;;
18090;SDS011;9172;49.948;9.208;2023-11-19T06:43:18;1.73;;;1.30;;
18090;SDS011;9172;49.948;9.208;2023-11-19T06:45:47;1.73;;;1.03;;
18090;SDS011;9172;49.948;9.208;2023-11-19T06:48:16;2.57;;;1.10;;
18090;SDS011;9172;49.948;9.208;2023-11-19T06:50:45;1.43;;;1.13;;
18090;SDS011;9172;49.948;9.208;2023-11-19T06:53:13;2.90;;;1.83;;
18090;SDS011;9172;49.948;9.208;2023-11-19T06:55:44;2.07;;;1.40;;
18090;SDS011;9172;49.948;9.208;2023-11-19T06:58:13;2.60;;;1.33;;
18090;SDS011;9172;49.948;9.208;2023-11-19T07:00:41;2.30;;;1.33;;
18090;SDS011;9172;49.948;9.208;2023-11-19T07:05:49;2.20;;;1.60;;
18090;SDS011;9172;49.948;9.208;2023-11-19T07:08:18;2.70;;;1.43;;
18090;SDS011;9172;49.948;9.208;2023-11-19T07:10:46;2.50;;;1.63;;
18090;SDS011;9172;49.948;9.208;2023-11-19T07:13:15;1.30;;;1.20;;
18090;SDS011;9172;49.948;9.208;2023-11-19T07:15:43;3.50;;;1.50;;
18090;SDS011;9172;49.948;9.208;2023-11-19T07:18:12;1.53;;;1.27;;
18090;SDS011;9172;49.948;9.208;2023-11-19T07:20:41;1.60;;;1.20;;
18090;SDS011;9172;49.948;9.208;2023-11-19T07:23:09;2.30;;;1.60;;
18090;SDS011;9172;49.948;9.208;2023-11-19T07:25:38;2.50;;;1.60;;
18090;SDS011;9172;49.948;9.208;2023-11-19T07:28:07;1.70;;;1.40;;
18090;SDS011;9172;49.948;9.208;2023-11-19T07:30:36;2.30;;;1.20;;
18090;SDS011;9172;49.948;9.208;2023-11-19T07:33:06;2.70;;;1.43;;
18090;SDS011;9172;49.948;9.208;2023-11-19T07:35:34;1.97;;;1.47;;
18090;SDS011;9172;49.948;9.208;2023-11-19T07:38:03;1.77;;;1.30;;
18090;SDS011;9172;49.948;9.208;2023-11-19T07:40:32;2.43;;;1.70;;
18090;SDS011;9172;49.948;9.208;2023-11-19T07:43:00;4.30;;;1.50;;
18090;SDS011;9172;49.948;9.208;2023-11-19T07:45:29;1.40;;;1.20;;
18090;SDS011;9172;49.948;9.208;2023-11-19T07:47:57;3.37;;;1.50;;
18090;SDS011;9172;49.948;9.208;2023-11-19T07:50:27;3.23;;;1.60;;
18090;SDS011;9172;49.948;9.208;2023-11-19T07:52:57;1.93;;;1.33;;
18090;SDS011;9172;49.948;9.208;2023-11-19T07:55:26;2.30;;;1.67;;
18090;SDS011;9172;49.948;9.208;2023-11-19T07:57:55;2.63;;;1.83;;
18090;SDS011;9172;49.948;9.208;2023-11-19T08:00:23;2.37;;;1.80;;
18090;SDS011;9172;49.948;9.208;2023-11-19T08:02:52;2.90;;;2.17;;
18090;SDS011;9172;49.948;9.208;2023-11-19T08:05:20;2.70;;;1.90;;
18090;SDS011;9172;49.948;9.208;2023-11-19T08:07:50;14.93;;;2.10;;
18090;SDS011;9172;49.948;9.208;2023-11-19T08:10:19;4.43;;;2.47;;
18090;SDS011;9172;49.948;9.208;2023-11-19T08:12:48;3.60;;;1.90;;
18090;SDS011;9172;49.948;9.208;2023-11-19T08:15:17;5.93;;;2.33;;
18090;SDS011;9172;49.948;9.208;2023-11-19T08:17:46;2.27;;;1.83;;
18090;SDS011;9172;49.948;9.208;2023-11-19T08:20:14;5.03;;;2.23;;
18090;SDS011;9172;49.948;9.208;2023-11-19T08:22:45;2.50;;;2.00;;
18090;SDS011;9172;49.948;9.208;2023-11-19T08:25:14;2.67;;;1.97;;
18090;SDS011;9172;49.948;9.208;2023-11-19T08:27:44;3.97;;;2.70;;
18090;SDS011;9172;49.948;9.208;2023-11-19T08:30:13;4.67;;;2.43;;
18090;SDS011;9172;49.948;9.208;2023-11-19T08:32:42;5.53;;;2.77;;
18090;SDS011;9172;49.948;9.208;2023-11-19T08:35:10;3.33;;;1.93;;
18090;SDS011;9172;49.948;9.208;2023-11-19T08:37:39;5.67;;;2.47;;
18090;SDS011;9172;49.948;9.208;2023-11-19T08:40:09;3.40;;;2.20;;
18090;SDS011;9172;49.948;9.208;2023-11-19T08:42:39;4.93;;;2.17;;
18090;SDS011;9172;49.948;9.208;2023-11-19T08:45:08;5.23;;;2.50;;
18090;SDS011;9172;49.948;9.208;2023-11-19T08:47:37;11.53;;;4.17;;
18090;SDS011;9172;49.948;9.208;2023-11-19T08:50:07;8.23;;;3.33;;
18090;SDS011;9172;49.948;9.208;2023-11-19T08:52:36;9.13;;;2.83;;
18090;SDS011;9172;49.948;9.208;2023-11-19T08:55:05;4.30;;;3.57;;
18090;SDS011;9172;49.948;9.208;2023-11-19T08:57:36;8.87;;;4.77;;
18090;SDS011;9172;49.948;9.208;2023-11-19T09:00:08;7.87;;;3.43;;
18090;SDS011;9172;49.948;9.208;2023-11-19T09:02:39;3.87;;;2.70;;
18090;SDS011;9172;49.948;9.208;2023-11-19T09:05:09;8.33;;;3.00;;
18090;SDS011;9172;49.948;9.208;2023-11-19T09:07:38;5.63;;;2.47;;
18090;SDS011;9172;49.948;9.208;2023-11-19T09:10:08;4.70;;;1.80;;
18090;SDS011;9172;49.948;9.208;2023-11-19T09:12:37;5.70;;;1.60;;
18090;SDS011;9172;49.948;9.208;2023-11-19T09:15:07;5.43;;;2.23;;
18090;SDS011;9172;49.948;9.208;2023-11-19T09:17:37;3.97;;;1.43;;
18090;SDS011;9172;49.948;9.208;2023-11-19T09:20:07;5.10;;;1.30;;
18090;SDS011;9172;49.948;9.208;2023-11-19T09:22:40;4.87;;;2.90;;
18090;SDS011;9172;49.948;9.208;2023-11-19T09:25:08;4.77;;;1.50;;
18090;SDS011;9172;49.948;9.208;2023-11-19T09:27:37;4.37;;;1.20;;
18090;SDS011;9172;49.948;9.208;2023-11-19T09:30:06;2.00;;;1.20;;
18090;SDS011;9172;49.948;9.208;2023-11-19T09:32:36;3.53;;;1.30;;
18090;SDS011;9172;49.948;9.208;2023-11-19T09:35:06;6.37;;;1.13;;
18090;SDS011;9172;49.948;9.208;2023-11-19T09:37:37;4.37;;;1.30;;
18090;SDS011;9172;49.948;9.208;2023-11-19T09:40:07;5.10;;;1.20;;
18090;SDS011;9172;49.948;9.208;2023-11-19T09:42:39;4.30;;;1.17;;
18090;SDS011;9172;49.948;9.208;2023-11-19T09:45:18;4.00;;;1.80;;
18090;SDS011;9172;49.948;9.208;2023-11-19T09:47:48;4.80;;;1.67;;
18090;SDS011;9172;49.948;9.208;2023-11-19T09:50:19;3.07;;;0.93;;
18090;SDS011;9172;49.948;9.208;2023-11-19T09:52:47;5.20;;;1.30;;
18090;SDS011;9172;49.948;9.208;2023-11-19T09:55:17;10.43;;;1.53;;
18090;SDS011;9172;49.948;9.208;2023-11-19T09:57:46;6.40;;;0.97;;
18090;SDS011;9172;49.948;9.208;2023-11-19T10:00:17;3.43;;;1.00;;
18090;SDS011;9172;49.948;9.208;2023-11-19T10:02:48;2.77;;;0.77;;
18090;SDS011;9172;49.948;9.208;2023-11-19T10:05:17;5.93;;;1.10;;
18090;SDS011;9172;49.948;9.208;2023-11-19T10:07:48;2.30;;;0.90;;
18090;SDS011;9172;49.948;9.208;2023-11-19T10:10:17;1.37;;;0.80;;
18090;SDS011;9172;49.948;9.208;2023-11-19T10:12:46;4.23;;;1.00;;
18090;SDS011;9172;49.948;9.208;2023-11-19T10:15:17;1.70;;;0.87;;
18090;SDS011;9172;49.948;9.208;2023-11-19T10:17:47;4.80;;;1.03;;
18090;SDS011;9172;49.948;9.208;2023-11-19T10:20:15;4.10;;;1.03;;
18090;SDS011;9172;49.948;9.208;2023-11-19T10:22:44;6.27;;;1.00;;
18090;SDS011;9172;49.948;9.208;2023-11-19T10:25:22;4.67;;;1.20;;
18090;SDS011;9172;49.948;9.208;2023-11-19T10:27:51;5.33;;;1.87;;
18090;SDS011;9172;49.948;9.208;2023-11-19T10:30:21;3.77;;;1.07;;
18090;SDS011;9172;49.948;9.208;2023-11-19T10:33:03;5.80;;;1.20;;
18090;SDS011;9172;49.948;9.208;2023-11-19T10:35:32;5.13;;;1.03;;
18090;SDS011;9172;49.948;9.208;2023-11-19T10:38:02;5.33;;;1.17;;
18090;SDS011;9172;49.948;9.208;2023-11-19T10:40:57;3.17;;;1.10;;
18090;SDS011;9172;49.948;9.208;2023-11-19T10:43:26;6.37;;;1.30;;
18090;SDS011;9172;49.948;9.208;2023-11-19T10:45:55;3.77;;;1.30;;
18090;SDS011;9172;49.948;9.208;2023-11-19T10:48:37;3.37;;;0.90;;
18090;SDS011;9172;49.948;9.208;2023-11-19T10:51:06;8.57;;;1.57;;
18090;SDS011;9172;49.948;9.208;2023-11-19T10:53:37;3.23;;;1.40;;
18090;SDS011;9172;49.948;9.208;2023-11-19T10:56:10;11.53;;;1.60;;
18090;SDS011;9172;49.948;9.208;2023-11-19T10:58:45;8.03;;;1.50;;
18090;SDS011;9172;49.948;9.208;2023-11-19T11:01:18;6.47;;;1.20;;
18090;SDS011;9172;49.948;9.208;2023-11-19T11:03:47;6.90;;;1.37;;
18090;SDS011;9172;49.948;9.208;2023-11-19T11:06:19;6.43;;;1.20;;
18090;SDS011;9172;49.948;9.208;2023-11-19T11:08:49;9.50;;;1.10;;
18090;SDS011;9172;49.948;9.208;2023-11-19T11:11:18;7.53;;;1.10;;
18090;SDS011;9172;49.948;9.208;2023-11-19T11:13:49;6.53;;;1.10;;
18090;SDS011;9172;49.948;9.208;2023-11-19T11:16:19;5.10;;;1.47;;
18090;SDS011;9172;49.948;9.208;2023-11-19T11:18:49;4.27;;;1.40;;
18090;SDS011;9172;49.948;9.208;2023-11-19T11:21:21;4.27;;;1.27;;
18090;SDS011;9172;49.948;9.208;2023-11-19T11:24:06;4.10;;;1.93;;
18090;SDS011;9172;49.948;9.208;2023-11-19T11:26:44;4.23;;;1.43;;
18090;SDS011;9172;49.948;9.208;2023-11-19T11:29:26;8.27;;;2.43;;
18090;SDS011;9172;49.948;9.208;2023-11-19T11:31:58;3.90;;;1.50;;
18090;SDS011;9172;49.948;9.208;2023-11-19T11:34:38;1.60;;;0.87;;
18090;SDS011;9172;49.948;9.208;2023-11-19T11:37:16;5.33;;;1.50;;
18090;SDS011;9172;49.948;9.208;2023-11-19T11:39:46;4.67;;;1.30;;
18090;SDS011;9172;49.948;9.208;2023-11-19T11:42:33;2.20;;;1.03;;
18090;SDS011;9172;49.948;9.208;2023-11-19T11:45:03;3.57;;;1.23;;
18090;SDS011;9172;49.948;9.208;2023-11-19T11:50:49;7.47;;;1.20;;
18090;SDS011;9172;49.948;9.208;2023-11-19T11:53:20;9.73;;;1.93;;
18090;SDS011;9172;49.948;9.208;2023-11-19T11:55:54;4.97;;;1.13;;
18090;SDS011;9172;49.948;9.208;2023-11-19T11:58:35;3.63;;;1.73;;
18090;SDS011;9172;49.948;9.208;2023-11-19T12:01:21;3.10;;;1.23;;
18090;SDS011;9172;49.948;9.208;2023-11-19T12:03:55;6.17;;;1.30;;
18090;SDS011;9172;49.948;9.208;2023-11-19T12:06:23;2.53;;;1.20;;
18090;SDS011;9172;49.948;9.208;2023-11-19T12:08:55;4.73;;;1.10;;
18090;SDS011;9172;49.948;9.208;2023-11-19T12:11:27;7.87;;;1.43;;
18090;SDS011;9172;49.948;9.208;2023-11-19T12:13:58;5.77;;;1.20;;
18090;SDS011;9172;49.948;9.208;2023-11-19T12:16:28;8.87;;;1.60;;
18090;SDS011;9172;49.948;9.208;2023-11-19T12:18:57;6.60;;;1.20;;
18090;SDS011;9172;49.948;9.208;2023-11-19T12:21:31;7.63;;;1.33;;
18090;SDS011;9172;49.948;9.208;2023-11-19T12:24:02;2.97;;;1.53;;
18090;SDS011;9172;49.948;9.208;2023-11-19T12:26:34;12.87;;;1.93;;
18090;SDS011;9172;49.948;9.208;2023-11-19T12:29:03;6.63;;;1.97;;
18090;SDS011;9172;49.948;9.208;2023-11-19T12:31:33;3.97;;;1.30;;
18090;SDS011;9172;49.948;9.208;2023-11-19T12:34:08;3.53;;;1.00;;
18090;SDS011;9172;49.948;9.208;2023-11-19T12:36:39;4.77;;;1.67;;
18090;SDS011;9172;49.948;9.208;2023-11-19T12:39:09;5.40;;;1.10;;
18090;SDS011;9172;49.948;9.208;2023-11-19T12:41:50;6.00;;;1.37;;
18090;SDS011;9172;49.948;9.208;2023-11-19T12:44:20;4.53;;;1.40;;
18090;SDS011;9172;49.948;9.208;2023-11-19T12:47:03;5.77;;;1.67;;
18090;SDS011;9172;49.948;9.208;2023-11-19T12:49:33;3.53;;;1.20;;
18090;SDS011;9172;49.948;9.208;2023-11-19T12:52:01;6.40;;;1.20;;
18090;SDS011;9172;49.948;9.208;2023-11-19T12:54:33;1.57;;;1.00;;
18090;SDS011;9172;49.948;9.208;2023-11-19T12:57:02;3.50;;;1.30;;
18090;SDS011;9172;49.948;9.208;2023-11-19T12:59:31;3.63;;;1.00;;
18090;SDS011;9172;49.948;9.208;2023-11-19T13:02:00;4.63;;;1.30;;
18090;SDS011;9172;49.948;9.208;2023-11-19T13:04:31;3.07;;;1.37;;
18090;SDS011;9172;49.948;9.208;2023-11-19T13:07:00;5.60;;;1.80;;
18090;SDS011;9172;49.948;9.208;2023-11-19T13:09:30;4.83;;;1.40;;
18090;SDS011;9172;49.948;9.208;2023-11-19T13:11:58;11.27;;;1.30;;
18090;SDS011;9172;49.948;9.208;2023-11-19T13:14:36;6.53;;;1.10;;
18090;SDS011;9172;49.948;9.208;2023-11-19T13:17:05;6.40;;;1.47;;
18090;SDS011;9172;49.948;9.208;2023-11-19T13:19:33;9.33;;;1.53;;
18090;SDS011;9172;49.948;9.208;2023-11-19T13:22:02;8.87;;;1.30;;
18090;SDS011;9172;49.948;9.208;2023-11-19T13:24:30;8.33;;;1.37;;
18090;SDS011;9172;49.948;9.208;2023-11-19T13:26:59;8.70;;;1.23;;
18090;SDS011;9172;49.948;9.208;2023-11-19T13:29:27;4.10;;;1.30;;
18090;SDS011;9172;49.948;9.208;2023-11-19T13:31:56;8.13;;;1.43;;
18090;SDS011;9172;49.948;9.208;2023-11-19T13:34:26;2.73;;;0.77;;
18090;SDS011;9172;49.948;9.208;2023-11-19T13:36:54;8.60;;;1.10;;
18090;SDS011;9172;49.948;9.208;2023-11-19T13:39:23;5.07;;;1.67;;
18090;SDS011;9172;49.948;9.208;2023-11-19T13:41:53;4.80;;;1.10;;
18090;SDS011;9172;49.948;9.208;2023-11-19T13:44:21;5.83;;;1.50;;
18090;SDS011;9172;49.948;9.208;2023-11-19T13:46:50;8.20;;;1.10;;
18090;SDS011;9172;49.948;9.208;2023-11-19T13:49:18;10.43;;;1.47;;
18090;SDS011;9172;49.948;9.208;2023-11-19T13:51:47;7.40;;;1.50;;
18090;SDS011;9172;49.948;9.208;2023-11-19T13:54:15;15.07;;;1.33;;
18090;SDS011;9172;49.948;9.208;2023-11-19T13:56:45;6.03;;;1.33;;
18090;SDS011;9172;49.948;9.208;2023-11-19T13:59:14;11.30;;;1.37;;
18090;SDS011;9172;49.948;9.208;2023-11-19T14:01:42;10.47;;;1.43;;
18090;SDS011;9172;49.948;9.208;2023-11-19T14:04:11;7.70;;;1.77;;
18090;SDS011;9172;49.948;9.208;2023-11-19T14:06:40;6.00;;;1.30;;
18090;SDS011;9172;49.948;9.208;2023-11-19T14:09:08;7.57;;;1.87;;
18090;SDS011;9172;49.948;9.208;2023-11-19T14:11:36;5.50;;;1.93;;
18090;SDS011;9172;49.948;9.208;2023-11-19T14:14:05;12.27;;;2.47;;
18090;SDS011;9172;49.948;9.208;2023-11-19T14:16:34;4.67;;;1.47;;
18090;SDS011;9172;49.948;9.208;2023-11-19T14:19:03;5.67;;;1.03;;
18090;SDS011;9172;49.948;9.208;2023-11-19T14:21:32;7.20;;;1.23;;
18090;SDS011;9172;49.948;9.208;2023-11-19T14:24:01;6.30;;;1.00;;
18090;SDS011;9172;49.948;9.208;2023-11-19T14:26:29;5.03;;;1.37;;
18090;SDS011;9172;49.948;9.208;2023-11-19T14:28:58;7.37;;;1.63;;
18090;SDS011;9172;49.948;9.208;2023-11-19T14:31:28;7.57;;;1.47;;
18090;SDS011;9172;49.948;9.208;2023-11-19T14:33:56;7.63;;;1.80;;
18090;SDS011;9172;49.948;9.208;2023-11-19T14:36:25;8.27;;;2.67;;
18090;SDS011;9172;49.948;9.208;2023-11-19T14:38:54;5.83;;;1.23;;
18090;SDS011;9172;49.948;9.208;2023-11-19T14:41:24;5.27;;;1.30;;
18090;SDS011;9172;49.948;9.208;2023-11-19T14:44:04;12.20;;;1.53;;
18090;SDS011;9172;49.948;9.208;2023-11-19T14:46:33;5.43;;;1.30;;
18090;SDS011;9172;49.948;9.208;2023-11-19T14:49:02;6.53;;;1.30;;
18090;SDS011;9172;49.948;9.208;2023-11-19T14:51:30;6.53;;;1.07;;
18090;SDS011;9172;49.948;9.208;2023-11-19T14:53:59;3.17;;;1.10;;
18090;SDS011;9172;49.948;9.208;2023-11-19T14:56:28;11.83;;;1.43;;
18090;SDS011;9172;49.948;9.208;2023-11-19T14:58:57;3.33;;;1.10;;
18090;SDS011;9172;49.948;9.208;2023-11-19T15:01:25;5.97;;;1.20;;
18090;SDS011;9172;49.948;9.208;2023-11-19T15:03:54;11.63;;;1.50;;
18090;SDS011;9172;49.948;9.208;2023-11-19T15:06:23;6.37;;;1.37;;
18090;SDS011;9172;49.948;9.208;2023-11-19T15:08:53;6.43;;;1.10;;
18090;SDS011;9172;49.948;9.208;2023-11-19T15:11:22;9.87;;;1.97;;
18090;SDS011;9172;49.948;9.208;2023-11-19T15:13:50;5.53;;;1.47;;
18090;SDS011;9172;49.948;9.208;2023-11-19T15:16:19;11.17;;;1.93;;
18090;SDS011;9172;49.948;9.208;2023-11-19T15:18:50;4.93;;;1.30;;
18090;SDS011;9172;49.948;9.208;2023-11-19T15:21:19;5.03;;;1.20;;
18090;SDS011;9172;49.948;9.208;2023-11-19T15:23:47;6.90;;;1.33;;
18090;SDS011;9172;49.948;9.208;2023-11-19T15:26:16;3.37;;;1.40;;